createdAt,value
2023-01-25T00:01:36.695Z,3.64
2023-01-25T00:04:03.820Z,3.45
2023-01-25T00:06:30.833Z,3.51
2023-01-25T00:08:57.834Z,3.60
2023-01-25T00:11:24.895Z,3.63
2023-01-25T00:13:54.637Z,3.55
2023-01-25T00:16:22.341Z,3.73
2023-01-25T00:18:49.853Z,3.65
2023-01-25T00:21:20.957Z,3.63
2023-01-25T00:23:48.285Z,3.56
2023-01-25T00:26:15.805Z,3.62
2023-01-25T00:28:43.165Z,3.62
2023-01-25T00:31:21.490Z,3.62
2023-01-25T00:34:01.384Z,3.55
2023-01-25T00:36:36.879Z,3.36
2023-01-25T00:39:12.395Z,3.43
2023-01-25T00:41:40.807Z,3.44
2023-01-25T00:44:07.967Z,3.41
2023-01-25T00:46:35.052Z,3.45
2023-01-25T00:49:02.255Z,3.43
2023-01-25T00:51:29.285Z,3.29
2023-01-25T00:53:56.342Z,3.31
2023-01-25T00:56:23.479Z,3.43
2023-01-25T00:58:50.549Z,3.36
2023-01-25T01:01:17.625Z,3.34
2023-01-25T01:03:44.687Z,3.38
2023-01-25T01:06:13.052Z,3.25
2023-01-25T01:08:41.811Z,3.29
2023-01-25T01:11:12.732Z,3.27
2023-01-25T01:13:41.052Z,3.32
2023-01-25T01:16:12.631Z,3.22
2023-01-25T01:18:44.214Z,3.27
2023-01-25T01:21:13.553Z,3.32
2023-01-25T01:23:41.144Z,3.23
2023-01-25T01:26:13.754Z,3.23
2023-01-25T01:28:41.037Z,3.18
2023-01-25T01:31:15.042Z,3.26
2023-01-25T01:33:42.325Z,3.25
2023-01-25T01:36:13.551Z,3.14
2023-01-25T01:38:41.549Z,3.15
2023-01-25T01:41:09.461Z,3.16
2023-01-25T01:43:37.248Z,3.13
2023-01-25T01:46:19.057Z,3.23
2023-01-25T01:49:04.021Z,2.95
2023-01-25T01:51:58.150Z,2.97
2023-01-25T01:54:43.705Z,2.97
2023-01-25T01:57:20.267Z,2.98
2023-01-25T02:00:03.944Z,3.11
2023-01-25T02:02:31.028Z,3.15
2023-01-25T02:05:03.780Z,3.08
2023-01-25T02:07:37.272Z,2.99
2023-01-25T02:10:09.604Z,3.05
2023-01-25T02:12:37.954Z,2.89
2023-01-25T02:15:07.139Z,2.95
2023-01-25T02:17:39.891Z,2.89
2023-01-25T02:20:30.053Z,2.94
2023-01-25T02:23:11.552Z,2.92
2023-01-25T02:25:38.783Z,2.89
2023-01-25T02:28:18.965Z,2.84
2023-01-25T02:30:47.127Z,2.95
2023-01-25T02:33:14.384Z,2.83
2023-01-25T02:35:53.970Z,2.78
2023-01-25T02:38:21.452Z,2.82
2023-01-25T02:41:03.232Z,2.80
2023-01-25T02:43:33.771Z,2.75
2023-01-25T02:46:27.796Z,2.85
2023-01-25T02:48:56.460Z,2.87
2023-01-25T02:51:27.199Z,2.83
2023-01-25T02:53:54.682Z,2.88
2023-01-25T02:56:22.235Z,2.85
2023-01-25T02:58:49.769Z,2.88
2023-01-25T03:01:17.528Z,2.88
2023-01-25T03:03:44.685Z,2.84
2023-01-25T03:06:12.009Z,2.89
2023-01-25T03:08:39.099Z,2.85
2023-01-25T03:11:07.756Z,2.93
2023-01-25T03:13:36.092Z,2.97
2023-01-25T03:16:10.647Z,2.73
2023-01-25T03:18:38.742Z,2.82
2023-01-25T03:21:12.664Z,2.79
2023-01-25T03:23:40.437Z,2.73
2023-01-25T03:26:19.118Z,2.68
2023-01-25T03:28:46.425Z,2.59
2023-01-25T03:31:16.331Z,2.58
2023-01-25T03:33:43.974Z,2.70
2023-01-25T03:36:11.396Z,2.72
2023-01-25T03:38:38.513Z,2.87
2023-01-25T03:41:05.747Z,2.71
2023-01-25T03:43:32.879Z,2.65
2023-01-25T03:46:02.169Z,2.64
2023-01-25T03:48:29.729Z,2.53
2023-01-25T03:50:59.408Z,2.56
2023-01-25T03:53:30.282Z,2.49
2023-01-25T03:56:03.152Z,2.68
2023-01-25T03:58:31.302Z,2.50
2023-01-25T04:01:04.180Z,2.50
2023-01-25T04:03:32.337Z,2.68
2023-01-25T04:06:00.406Z,2.57
2023-01-25T04:08:27.716Z,2.56
2023-01-25T04:11:00.545Z,2.55
2023-01-25T04:13:28.321Z,2.45
2023-01-25T04:15:55.491Z,2.51
2023-01-25T04:18:22.631Z,2.60
2023-01-25T04:20:55.153Z,2.52
2023-01-25T04:23:23.518Z,2.51
2023-01-25T04:25:59.830Z,2.57
2023-01-25T04:28:28.375Z,2.45
2023-01-25T04:30:57.041Z,2.54
2023-01-25T04:33:25.287Z,2.33
2023-01-25T04:35:52.631Z,2.42
2023-01-25T04:38:20.042Z,2.31
2023-01-25T04:40:47.248Z,2.33
2023-01-25T04:43:16.654Z,2.50
2023-01-25T04:45:43.999Z,2.51
2023-01-25T04:48:13.361Z,2.35
2023-01-25T04:50:42.402Z,2.30
2023-01-25T04:53:11.746Z,2.28
2023-01-25T04:55:38.896Z,2.22
2023-01-25T04:58:05.985Z,2.11
2023-01-25T05:00:33.485Z,2.11
2023-01-25T05:03:00.513Z,2.11
2023-01-25T05:05:27.875Z,2.07
2023-01-25T05:07:54.979Z,2.15
2023-01-25T05:10:23.096Z,2.11
2023-01-25T05:12:50.178Z,2.09
2023-01-25T05:15:17.275Z,2.07
2023-01-25T05:17:44.771Z,2.04
2023-01-25T05:20:12.549Z,2.03
2023-01-25T05:22:39.617Z,2.10
2023-01-25T05:25:27.040Z,1.97
2023-01-25T05:27:54.050Z,1.91
2023-01-25T05:30:21.186Z,2.05
2023-01-25T05:32:50.399Z,2.12
2023-01-25T05:35:17.622Z,2.09
2023-01-25T05:37:44.623Z,2.02
2023-01-25T05:40:12.313Z,2.04
2023-01-25T05:42:39.455Z,1.95
2023-01-25T05:45:07.841Z,1.97
2023-01-25T05:47:35.206Z,1.95
2023-01-25T05:50:02.227Z,2.01
2023-01-25T05:52:29.197Z,1.95
2023-01-25T05:54:56.180Z,1.88
2023-01-25T05:57:23.183Z,1.82
2023-01-25T05:59:50.181Z,1.90
2023-01-25T06:02:17.244Z,1.96
2023-01-25T06:04:44.370Z,1.87
2023-01-25T06:07:11.369Z,1.78
2023-01-25T06:09:38.396Z,1.67
2023-01-25T06:12:06.851Z,1.79
2023-01-25T06:14:33.888Z,1.94
2023-01-25T06:17:01.054Z,1.83
2023-01-25T06:19:28.361Z,1.80
2023-01-25T06:21:55.407Z,1.76
2023-01-25T06:24:22.460Z,1.82
2023-01-25T06:26:49.548Z,1.70
2023-01-25T06:29:16.616Z,1.77
2023-01-25T06:31:43.773Z,1.79
2023-01-25T06:34:12.662Z,1.86
2023-01-25T06:36:39.647Z,1.75
2023-01-25T06:39:06.794Z,1.91
2023-01-25T06:41:34.046Z,1.94
2023-01-25T06:44:01.156Z,1.76
2023-01-25T06:46:28.213Z,1.77
2023-01-25T06:48:55.250Z,1.78
2023-01-25T06:51:22.238Z,1.76
2023-01-25T06:53:49.386Z,1.64
2023-01-25T06:56:20.797Z,1.66
2023-01-25T06:58:48.691Z,1.64
2023-01-25T07:01:22.755Z,1.66
2023-01-25T07:03:52.712Z,1.80
2023-01-25T07:06:20.942Z,1.73
2023-01-25T07:08:49.255Z,1.70
2023-01-25T07:11:19.149Z,1.87
2023-01-25T07:13:47.720Z,1.95
2023-01-25T07:16:19.258Z,1.97
2023-01-25T07:18:47.154Z,1.82
2023-01-25T07:21:23.313Z,1.95
2023-01-25T07:23:51.517Z,1.88
2023-01-25T07:26:26.275Z,2.05
2023-01-25T07:28:55.803Z,1.90
2023-01-25T07:31:24.034Z,1.84
2023-01-25T07:33:53.691Z,1.77
2023-01-25T07:36:21.942Z,1.87
2023-01-25T07:38:49.324Z,1.88
2023-01-25T07:41:19.532Z,2.03
2023-01-25T07:43:46.610Z,1.96
2023-01-25T07:46:15.584Z,1.97
2023-01-25T07:48:48.643Z,1.83
2023-01-25T07:51:23.723Z,1.92
2023-01-25T07:53:54.252Z,1.86
2023-01-25T07:56:24.597Z,1.97
2023-01-25T07:58:54.826Z,2.02
2023-01-25T08:01:25.115Z,2.01
2023-01-25T08:03:55.739Z,1.90
2023-01-25T08:06:30.854Z,1.79
2023-01-25T08:08:59.994Z,2.07
2023-01-25T08:11:30.166Z,1.98
2023-01-25T08:13:57.602Z,1.94
2023-01-25T08:16:27.663Z,1.93
2023-01-25T08:18:58.196Z,2.08
2023-01-25T08:21:30.194Z,1.94
2023-01-25T08:24:02.545Z,1.83
2023-01-25T08:26:30.098Z,1.95
2023-01-25T08:28:57.902Z,1.84
2023-01-25T08:31:31.419Z,1.97
2023-01-25T08:33:59.474Z,1.95
2023-01-25T08:36:30.243Z,1.82
2023-01-25T08:39:06.009Z,1.95
2023-01-25T08:41:35.622Z,1.81
2023-01-25T08:44:02.785Z,1.83
2023-01-25T08:46:33.341Z,1.97
2023-01-25T08:49:02.363Z,1.98
2023-01-25T08:51:31.680Z,1.84
2023-01-25T08:54:04.984Z,1.97
2023-01-25T08:56:32.210Z,2.07
2023-01-25T08:58:59.258Z,1.92
2023-01-25T09:01:26.269Z,1.89
2023-01-25T09:03:54.765Z,1.85
2023-01-25T09:06:21.829Z,1.88
2023-01-25T09:08:49.677Z,1.86
2023-01-25T09:11:21.166Z,1.94
2023-01-25T09:13:49.235Z,1.95
2023-01-25T09:16:28.678Z,1.93
2023-01-25T09:18:59.193Z,2.09
2023-01-25T09:21:26.362Z,2.05
2023-01-25T09:24:05.929Z,2.29
2023-01-25T09:26:37.689Z,2.11
2023-01-25T09:29:05.428Z,2.12
2023-01-25T09:31:32.502Z,2.13
2023-01-25T09:33:59.619Z,2.10
2023-01-25T09:36:27.009Z,2.04
2023-01-25T09:38:55.075Z,2.11
2023-01-25T09:41:25.068Z,2.10
2023-01-25T09:44:13.788Z,2.47
2023-01-25T09:46:42.510Z,2.22
2023-01-25T09:49:39.671Z,2.37
2023-01-25T09:53:12.442Z,2.26
2023-01-25T09:55:40.260Z,2.18
2023-01-25T09:58:18.275Z,2.26
2023-01-25T10:00:48.175Z,2.20
2023-01-25T10:03:57.829Z,2.23
2023-01-25T10:06:46.078Z,2.24
2023-01-25T10:09:42.666Z,2.23
2023-01-25T10:12:19.233Z,2.34
2023-01-25T10:14:46.581Z,2.42
2023-01-25T10:17:40.433Z,2.31
2023-01-25T10:20:51.101Z,2.27
2023-01-25T10:23:36.065Z,2.14
2023-01-25T10:26:23.897Z,2.14
2023-01-25T10:29:18.049Z,2.24
2023-01-25T10:31:50.550Z,2.39
2023-01-25T10:34:56.793Z,2.32
2023-01-25T10:37:30.890Z,2.28
2023-01-25T10:40:09.591Z,2.24
2023-01-25T10:43:02.275Z,2.32
2023-01-25T10:45:29.289Z,2.32
2023-01-25T10:48:06.366Z,2.31
2023-01-25T10:50:46.545Z,2.37
2023-01-25T10:53:37.142Z,2.27
2023-01-25T10:56:12.924Z,2.22
2023-01-25T10:58:47.024Z,2.30
2023-01-25T11:01:31.301Z,2.25
2023-01-25T11:03:59.557Z,2.44
2023-01-25T11:06:34.211Z,2.29
2023-01-25T11:09:22.850Z,2.28
2023-01-25T11:12:00.807Z,2.27
2023-01-25T11:14:33.463Z,2.25
2023-01-25T11:17:04.252Z,2.30
2023-01-25T11:19:40.496Z,2.47
2023-01-25T11:22:24.503Z,2.20
2023-01-25T11:24:52.090Z,2.07
2023-01-25T11:27:27.388Z,2.06
2023-01-25T11:30:11.202Z,2.19
2023-01-25T11:32:39.802Z,2.30
2023-01-25T11:35:27.545Z,2.52
2023-01-25T11:38:19.919Z,2.60
2023-01-25T11:40:57.167Z,2.51
2023-01-25T11:43:52.782Z,2.57
2023-01-25T11:47:07.262Z,2.47
2023-01-25T11:50:01.376Z,2.41
2023-01-25T11:52:50.441Z,2.41
2023-01-25T11:55:54.382Z,2.48
2023-01-25T11:58:39.989Z,2.66
2023-01-25T12:01:34.828Z,2.69
2023-01-25T12:04:36.197Z,2.56
2023-01-25T12:07:25.518Z,2.60
2023-01-25T12:10:28.383Z,2.70
2023-01-25T12:13:15.609Z,2.64
2023-01-25T12:16:18.939Z,2.60
2023-01-25T12:19:16.551Z,2.57
2023-01-25T12:22:12.182Z,2.52
2023-01-25T12:25:17.077Z,2.59
2023-01-25T12:27:56.201Z,2.59
2023-01-25T12:31:12.617Z,2.50
2023-01-25T12:34:03.840Z,2.44
2023-01-25T12:37:00.110Z,2.49
2023-01-25T12:39:40.335Z,2.44
2023-01-25T12:42:23.270Z,2.58
2023-01-25T12:45:11.887Z,2.49
2023-01-25T12:47:47.286Z,2.45
2023-01-25T12:50:46.284Z,2.48
2023-01-25T12:53:48.299Z,2.55
2023-01-25T12:56:44.103Z,2.68
2023-01-25T12:59:43.831Z,2.62
2023-01-25T13:02:34.241Z,2.58
2023-01-25T13:05:16.299Z,2.71
2023-01-25T13:08:30.053Z,2.56
2023-01-25T13:11:15.453Z,2.66
2023-01-25T13:13:42.816Z,2.47
2023-01-25T13:16:36.528Z,2.58
2023-01-25T13:19:03.888Z,2.58
2023-01-25T13:21:44.979Z,2.55
2023-01-25T13:24:24.025Z,2.59
2023-01-25T13:26:54.218Z,2.60
2023-01-25T13:29:36.484Z,2.61
2023-01-25T13:32:34.838Z,2.83
2023-01-25T13:35:02.540Z,2.87
2023-01-25T13:37:33.408Z,2.84
2023-01-25T13:40:34.145Z,2.88
2023-01-25T13:43:05.462Z,2.65
2023-01-25T13:45:36.426Z,2.71
2023-01-25T13:48:09.209Z,2.73
2023-01-25T13:50:43.464Z,2.85
2023-01-25T13:53:16.467Z,2.64
2023-01-25T13:56:02.876Z,2.80
2023-01-25T13:58:48.068Z,2.73
2023-01-25T14:01:19.898Z,2.71
2023-01-25T14:04:02.161Z,2.63
2023-01-25T14:06:39.602Z,2.55
2023-01-25T14:09:22.797Z,2.63
2023-01-25T14:12:00.347Z,2.69
2023-01-25T14:14:33.357Z,2.69
2023-01-25T14:17:11.937Z,2.65
2023-01-25T14:19:45.591Z,2.71
2023-01-25T14:22:28.003Z,2.49
2023-01-25T14:25:17.642Z,2.58
2023-01-25T14:28:06.662Z,2.73
2023-01-25T14:30:36.218Z,2.49
2023-01-25T14:33:18.848Z,2.38
2023-01-25T14:35:56.311Z,2.52
2023-01-25T14:38:43.184Z,2.31
2023-01-25T14:41:34.787Z,2.53
2023-01-25T14:44:13.978Z,2.50
2023-01-25T14:46:41.971Z,2.49
2023-01-25T14:49:11.932Z,2.52
2023-01-25T14:51:49.193Z,2.53
2023-01-25T14:54:26.125Z,2.42
2023-01-25T14:57:06.035Z,2.35
2023-01-25T14:59:37.822Z,2.66
2023-01-25T15:02:44.618Z,2.48
2023-01-25T15:05:27.718Z,2.48
2023-01-25T15:08:24.953Z,2.72
2023-01-25T15:10:53.773Z,2.73
2023-01-25T15:13:28.287Z,2.74
2023-01-25T15:16:00.863Z,2.65
2023-01-25T15:18:54.154Z,2.65
2023-01-25T15:21:33.061Z,2.71
2023-01-25T15:24:06.550Z,2.70
2023-01-25T15:26:35.427Z,2.73
2023-01-25T15:29:15.188Z,2.82
2023-01-25T15:31:43.077Z,2.81
2023-01-25T15:34:21.195Z,2.90
2023-01-25T15:36:48.508Z,2.85
2023-01-25T15:39:18.994Z,2.84
2023-01-25T15:41:46.868Z,2.86
2023-01-25T15:44:14.051Z,2.91
2023-01-25T15:46:46.298Z,2.90
2023-01-25T15:49:28.797Z,2.76
2023-01-25T15:51:56.560Z,2.84
2023-01-25T15:54:24.548Z,2.89
2023-01-25T15:56:56.141Z,2.88
2023-01-25T15:59:23.653Z,2.89
2023-01-25T16:01:50.769Z,2.87
2023-01-25T16:04:17.874Z,2.82
2023-01-25T16:06:47.735Z,2.94
2023-01-25T16:09:25.081Z,2.98
2023-01-25T16:11:58.615Z,2.93
2023-01-25T16:14:31.447Z,2.97
2023-01-25T16:17:03.096Z,2.93
2023-01-25T16:19:31.005Z,2.88
2023-01-25T16:21:58.288Z,2.88
2023-01-25T16:24:25.398Z,3.10
2023-01-25T16:26:58.361Z,3.04
2023-01-25T16:29:26.388Z,2.98
2023-01-25T16:31:54.443Z,2.84
2023-01-25T16:34:22.192Z,2.85
2023-01-25T16:36:51.012Z,2.76
2023-01-25T16:39:24.255Z,2.72
2023-01-25T16:41:51.616Z,2.76
2023-01-25T16:44:19.348Z,2.64
2023-01-25T16:46:48.329Z,2.64
2023-01-25T16:49:27.458Z,2.69
2023-01-25T16:51:55.353Z,2.65
2023-01-25T16:54:23.578Z,2.54
2023-01-25T16:56:52.266Z,2.63
2023-01-25T16:59:20.567Z,2.61
2023-01-25T17:01:48.261Z,2.56
2023-01-25T17:04:15.725Z,2.63
2023-01-25T17:06:46.621Z,2.55
2023-01-25T17:09:23.339Z,2.52
2023-01-25T17:11:52.137Z,2.65
2023-01-25T17:14:20.228Z,2.68
2023-01-25T17:16:51.347Z,2.61
2023-01-25T17:19:20.033Z,2.58
2023-01-25T17:21:47.222Z,2.54
2023-01-25T17:24:18.065Z,2.60
2023-01-25T17:26:45.162Z,2.56
2023-01-25T17:29:13.769Z,2.47
2023-01-25T17:31:42.235Z,2.40
2023-01-25T17:34:13.686Z,2.43
2023-01-25T17:36:40.865Z,2.42
2023-01-25T17:39:08.487Z,2.44
2023-01-25T17:41:36.060Z,2.43
2023-01-25T17:44:03.628Z,2.39
2023-01-25T17:46:35.070Z,2.39
2023-01-25T17:49:05.897Z,2.42
2023-01-25T17:51:34.744Z,2.45
2023-01-25T17:54:02.837Z,2.45
2023-01-25T17:56:30.443Z,2.45
2023-01-25T17:59:00.550Z,2.33
2023-01-25T18:01:31.259Z,2.47
2023-01-25T18:03:58.719Z,2.45
2023-01-25T18:06:29.807Z,2.49
2023-01-25T18:09:00.741Z,2.50
2023-01-25T18:11:34.435Z,2.39
2023-01-25T18:14:08.224Z,2.31
2023-01-25T18:16:38.925Z,2.30
2023-01-25T18:19:06.649Z,2.61
2023-01-25T18:21:35.075Z,2.43
2023-01-25T18:24:25.853Z,2.29
2023-01-25T18:27:00.170Z,2.42
2023-01-25T18:29:45.698Z,2.38
2023-01-25T18:32:13.954Z,2.27
2023-01-25T18:34:41.129Z,2.23
2023-01-25T18:37:18.274Z,2.22
2023-01-25T18:39:54.384Z,2.31
2023-01-25T18:42:24.539Z,2.28
2023-01-25T18:44:51.833Z,2.47
2023-01-25T18:47:21.578Z,2.32
2023-01-25T18:49:50.764Z,2.32
2023-01-25T18:52:20.427Z,2.34
2023-01-25T18:54:47.556Z,2.34
2023-01-25T18:57:15.814Z,2.29
2023-01-25T18:59:43.930Z,2.24
2023-01-25T19:02:14.519Z,2.17
2023-01-25T19:04:41.566Z,2.17
2023-01-25T19:07:08.826Z,2.14
2023-01-25T19:09:35.910Z,2.09
2023-01-25T19:12:03.369Z,2.11
2023-01-25T19:14:30.419Z,2.17
2023-01-25T19:16:57.508Z,2.24
2023-01-25T19:19:24.585Z,2.31
2023-01-25T19:21:51.697Z,2.36
2023-01-25T19:24:19.797Z,2.34
2023-01-25T19:26:47.514Z,2.28
2023-01-25T19:29:15.626Z,2.30
2023-01-25T19:31:42.755Z,2.29
2023-01-25T19:34:09.923Z,2.25
2023-01-25T19:36:47.461Z,2.16
2023-01-25T19:39:14.580Z,2.12
2023-01-25T19:41:42.203Z,2.23
2023-01-25T19:44:13.758Z,2.29
2023-01-25T19:46:40.946Z,2.30
2023-01-25T19:49:10.539Z,2.25
2023-01-25T19:51:41.442Z,2.28
2023-01-25T19:54:16.750Z,2.31
2023-01-25T19:56:47.436Z,2.25
2023-01-25T19:59:24.955Z,2.09
2023-01-25T20:01:52.451Z,2.15
2023-01-25T20:04:22.977Z,2.20
2023-01-25T20:06:51.618Z,2.24
2023-01-25T20:09:20.260Z,2.19
2023-01-25T20:11:47.630Z,2.16
2023-01-25T20:14:15.840Z,2.14
2023-01-25T20:16:42.966Z,2.16
2023-01-25T20:19:12.510Z,2.20
2023-01-25T20:21:39.948Z,2.12
2023-01-25T20:24:09.869Z,2.13
2023-01-25T20:26:39.393Z,2.15
2023-01-25T20:29:07.607Z,2.09
2023-01-25T20:31:38.040Z,2.14
2023-01-25T20:34:10.437Z,2.23
2023-01-25T20:36:37.780Z,2.22
2023-01-25T20:39:07.102Z,2.30
2023-01-25T20:41:35.081Z,2.17
2023-01-25T20:44:11.281Z,2.21
2023-01-25T20:46:40.984Z,2.25
2023-01-25T20:49:13.800Z,2.13
2023-01-25T20:51:42.841Z,2.19
2023-01-25T20:54:10.558Z,2.16
2023-01-25T20:56:37.815Z,2.25
2023-01-25T20:59:05.883Z,2.28
2023-01-25T21:01:36.664Z,2.23
2023-01-25T21:04:06.374Z,2.19
2023-01-25T21:06:35.233Z,2.30
2023-01-25T21:09:04.037Z,2.27
2023-01-25T21:11:31.705Z,2.20
2023-01-25T21:13:59.627Z,2.14
2023-01-25T21:16:27.163Z,2.09
2023-01-25T21:18:58.308Z,2.23
2023-01-25T21:21:34.652Z,2.13
2023-01-25T21:24:02.966Z,2.25
2023-01-25T21:26:33.530Z,2.23
2023-01-25T21:29:02.216Z,2.22
2023-01-25T21:31:32.998Z,2.08
2023-01-25T21:34:01.041Z,2.16
2023-01-25T21:36:28.330Z,2.13
2023-01-25T21:38:56.213Z,2.11
2023-01-25T21:41:26.402Z,2.14
2023-01-25T21:44:14.263Z,2.09
2023-01-25T21:46:41.763Z,2.09
2023-01-25T21:49:30.359Z,2.08
2023-01-25T21:52:03.785Z,2.09
2023-01-25T21:54:37.012Z,2.14
2023-01-25T21:57:09.427Z,2.22
2023-01-25T21:59:38.111Z,2.14
2023-01-25T22:02:08.243Z,2.16
2023-01-25T22:04:36.217Z,2.18
2023-01-25T22:07:04.137Z,2.14
2023-01-25T22:09:31.239Z,2.18
2023-01-25T22:11:58.594Z,2.18
2023-01-25T22:14:25.672Z,2.19
2023-01-25T22:16:53.310Z,2.18
2023-01-25T22:19:20.347Z,2.18
2023-01-25T22:21:47.829Z,2.12
2023-01-25T22:24:15.368Z,2.16
2023-01-25T22:27:17.234Z,2.17
2023-01-25T22:29:44.274Z,2.10
2023-01-25T22:32:11.272Z,2.13
2023-01-25T22:34:38.284Z,2.16
2023-01-25T22:37:05.362Z,2.13
2023-01-25T22:39:32.374Z,2.06
2023-01-25T22:41:59.372Z,2.06
2023-01-25T22:44:26.408Z,2.03
2023-01-25T22:46:53.866Z,2.08
2023-01-25T22:49:20.989Z,2.18
2023-01-25T22:51:47.998Z,2.16
2023-01-25T22:54:15.004Z,2.08
2023-01-25T22:56:42.050Z,2.12
2023-01-25T22:59:12.189Z,2.29
2023-01-25T23:01:39.256Z,2.22
2023-01-25T23:04:06.435Z,2.21
2023-01-25T23:06:36.560Z,2.19
2023-01-25T23:09:06.400Z,2.21
2023-01-25T23:11:37.473Z,2.15
2023-01-25T23:14:30.314Z,2.23
2023-01-25T23:17:17.580Z,2.29
2023-01-25T23:19:44.824Z,2.25
2023-01-25T23:22:12.520Z,2.25
2023-01-25T23:24:39.637Z,2.29
2023-01-25T23:27:06.735Z,2.18
2023-01-25T23:29:33.808Z,2.22
2023-01-25T23:32:00.897Z,2.21
2023-01-25T23:34:28.035Z,2.21
2023-01-25T23:36:55.080Z,2.18
2023-01-25T23:39:23.628Z,2.21
2023-01-25T23:41:52.457Z,2.17
2023-01-25T23:44:19.431Z,2.25
2023-01-25T23:46:46.520Z,2.23
2023-01-25T23:49:13.810Z,2.21
2023-01-25T23:51:40.854Z,2.11
2023-01-25T23:54:07.964Z,2.22
2023-01-25T23:56:34.956Z,2.19
2023-01-25T23:59:02.062Z,2.24
